sensor_id;sensor_type;location;lat;lon;timestamp;pressure;altitude;pressure_sealevel;temperature;humidity
27980;BME280;15315;50.836;4.430;2023-09-18T00:05:58;99966.94;;;25.99;83.25
27980;BME280;15315;50.836;4.430;2023-09-18T00:15:59;99964.50;;;26.09;83.18
27980;BME280;15315;50.836;4.430;2023-09-18T00:25:59;99996.38;;;25.86;85.03
27980;BME280;15315;50.836;4.430;2023-09-18T00:36:00;99913.28;;;25.88;84.43
27980;BME280;15315;50.836;4.430;2023-09-18T00:46:00;99992.53;;;25.56;93.33
27980;BME280;15315;50.836;4.430;2023-09-18T00:56:03;100003.97;;;25.60;93.19
27980;BME280;15315;50.836;4.430;2023-09-18T01:06:03;99977.19;;;25.29;96.26
27980;BME280;15315;50.836;4.430;2023-09-18T01:16:15;99955.81;;;25.56;94.45
27980;BME280;15315;50.836;4.430;2023-09-18T01:26:17;99938.22;;;25.75;91.50
27980;BME280;15315;50.836;4.430;2023-09-18T01:36:19;99933.44;;;25.64;92.27
27980;BME280;15315;50.836;4.430;2023-09-18T01:46:20;99902.75;;;25.78;90.56
27980;BME280;15315;50.836;4.430;2023-09-18T01:56:21;99883.19;;;25.55;93.00
27980;BME280;15315;50.836;4.430;2023-09-18T02:06:22;99872.31;;;25.60;92.15
27980;BME280;15315;50.836;4.430;2023-09-18T02:16:22;99908.59;;;25.64;92.43
27980;BME280;15315;50.836;4.430;2023-09-18T02:26:24;99928.13;;;25.62;93.18
27980;BME280;15315;50.836;4.430;2023-09-18T02:36:25;99906.13;;;25.56;93.58
27980;BME280;15315;50.836;4.430;2023-09-18T02:46:25;99854.31;;;25.26;96.64
27980;BME280;15315;50.836;4.430;2023-09-18T02:56:25;99864.22;;;25.03;96.33
27980;BME280;15315;50.836;4.430;2023-09-18T03:06:26;99854.88;;;25.04;92.69
27980;BME280;15315;50.836;4.430;2023-09-18T03:16:26;99842.53;;;25.13;88.67
27980;BME280;15315;50.836;4.430;2023-09-18T03:26:27;99867.91;;;25.28;87.24
27980;BME280;15315;50.836;4.430;2023-09-18T03:36:27;99850.44;;;25.34;86.05
27980;BME280;15315;50.836;4.430;2023-09-18T03:46:28;99854.75;;;25.23;86.46
27980;BME280;15315;50.836;4.430;2023-09-18T03:56:28;99824.09;;;24.82;89.66
27980;BME280;15315;50.836;4.430;2023-09-18T04:06:36;99813.34;;;24.67;89.17
27980;BME280;15315;50.836;4.430;2023-09-18T04:16:37;99813.97;;;24.25;91.71
27980;BME280;15315;50.836;4.430;2023-09-18T04:26:40;99822.38;;;23.53;98.43
27980;BME280;15315;50.836;4.430;2023-09-18T04:36:41;99822.81;;;23.50;96.32
27980;BME280;15315;50.836;4.430;2023-09-18T04:46:41;99809.66;;;23.32;95.55
27980;BME280;15315;50.836;4.430;2023-09-18T04:56:42;99815.59;;;23.10;96.35
27980;BME280;15315;50.836;4.430;2023-09-18T05:06:42;99826.38;;;23.11;94.16
27980;BME280;15315;50.836;4.430;2023-09-18T05:16:43;99837.28;;;22.72;95.72
27980;BME280;15315;50.836;4.430;2023-09-18T05:26:43;99842.38;;;22.75;96.83
27980;BME280;15315;50.836;4.430;2023-09-18T05:36:44;99834.16;;;22.81;94.65
27980;BME280;15315;50.836;4.430;2023-09-18T05:46:44;99828.69;;;22.95;92.41
27980;BME280;15315;50.836;4.430;2023-09-18T05:56:45;99842.97;;;22.70;95.02
27980;BME280;15315;50.836;4.430;2023-09-18T06:06:45;99846.75;;;22.56;95.25
27980;BME280;15315;50.836;4.430;2023-09-18T06:16:46;99846.75;;;22.63;93.64
27980;BME280;15315;50.836;4.430;2023-09-18T06:26:47;99862.13;;;22.98;91.00
27980;BME280;15315;50.836;4.430;2023-09-18T06:36:47;99878.91;;;22.62;91.25
27980;BME280;15315;50.836;4.430;2023-09-18T06:46:49;99906.25;;;22.77;91.30
27980;BME280;15315;50.836;4.430;2023-09-18T06:56:49;99888.81;;;22.57;93.45
27980;BME280;15315;50.836;4.430;2023-09-18T07:06:50;99881.66;;;22.62;92.16
27980;BME280;15315;50.836;4.430;2023-09-18T07:16:51;99881.00;;;22.60;92.45
27980;BME280;15315;50.836;4.430;2023-09-18T07:26:52;99888.78;;;23.24;87.96
27980;BME280;15315;50.836;4.430;2023-09-18T07:36:52;99897.25;;;23.16;88.26
27980;BME280;15315;50.836;4.430;2023-09-18T07:46:55;99891.41;;;23.52;85.22
27980;BME280;15315;50.836;4.430;2023-09-18T07:56:55;99884.16;;;23.70;84.04
27980;BME280;15315;50.836;4.430;2023-09-18T08:06:57;99894.72;;;23.27;85.30
27980;BME280;15315;50.836;4.430;2023-09-18T08:16:58;99900.69;;;23.83;81.24
27980;BME280;15315;50.836;4.430;2023-09-18T08:26:59;99921.38;;;24.32;79.33
27980;BME280;15315;50.836;4.430;2023-09-18T08:36:59;99954.66;;;24.24;77.78
27980;BME280;15315;50.836;4.430;2023-09-18T08:47:00;99953.03;;;24.03;78.85
27980;BME280;15315;50.836;4.430;2023-09-18T08:57:00;99957.38;;;24.43;76.12
27980;BME280;15315;50.836;4.430;2023-09-18T09:07:02;99968.31;;;24.76;72.88
27980;BME280;15315;50.836;4.430;2023-09-18T09:17:03;99980.16;;;24.83;72.39
27980;BME280;15315;50.836;4.430;2023-09-18T09:27:04;99973.84;;;24.69;71.42
27980;BME280;15315;50.836;4.430;2023-09-18T09:37:04;99971.69;;;25.29;69.79
27980;BME280;15315;50.836;4.430;2023-09-18T09:47:05;99978.34;;;25.08;69.62
27980;BME280;15315;50.836;4.430;2023-09-18T09:57:06;99981.25;;;25.26;68.56
27980;BME280;15315;50.836;4.430;2023-09-18T10:07:07;99991.63;;;24.80;70.88
27980;BME280;15315;50.836;4.430;2023-09-18T10:17:16;99990.69;;;24.22;72.53
27980;BME280;15315;50.836;4.430;2023-09-18T10:27:18;99990.75;;;25.37;67.36
27980;BME280;15315;50.836;4.430;2023-09-18T10:37:22;100000.06;;;24.92;68.94
27980;BME280;15315;50.836;4.430;2023-09-18T10:47:23;99997.16;;;24.74;68.42
27980;BME280;15315;50.836;4.430;2023-09-18T10:57:24;99986.72;;;24.89;67.37
27980;BME280;15315;50.836;4.430;2023-09-18T11:07:24;99977.31;;;24.39;69.20
27980;BME280;15315;50.836;4.430;2023-09-18T11:17:32;99972.78;;;24.77;67.30
27980;BME280;15315;50.836;4.430;2023-09-18T11:27:56;99968.09;;;24.84;64.92
27980;BME280;15315;50.836;4.430;2023-09-18T11:38:08;99982.59;;;25.49;62.18
27980;BME280;15315;50.836;4.430;2023-09-18T11:48:09;99977.72;;;25.51;61.20
27980;BME280;15315;50.836;4.430;2023-09-18T11:58:12;99953.69;;;25.82;60.68
27980;BME280;15315;50.836;4.430;2023-09-18T12:08:13;99924.59;;;26.23;58.85
27980;BME280;15315;50.836;4.430;2023-09-18T12:18:15;99910.00;;;25.73;57.39
27980;BME280;15315;50.836;4.430;2023-09-18T12:28:16;99896.94;;;26.47;56.84
27980;BME280;15315;50.836;4.430;2023-09-18T12:38:18;99884.38;;;26.09;57.88
27980;BME280;15315;50.836;4.430;2023-09-18T12:48:22;99879.97;;;26.92;53.60
27980;BME280;15315;50.836;4.430;2023-09-18T12:58:23;99867.97;;;26.14;54.35
27980;BME280;15315;50.836;4.430;2023-09-18T13:08:24;99849.94;;;26.77;50.92
27980;BME280;15315;50.836;4.430;2023-09-18T13:18:25;99830.81;;;26.46;51.89
27980;BME280;15315;50.836;4.430;2023-09-18T13:28:25;99818.81;;;26.52;51.24
27980;BME280;15315;50.836;4.430;2023-09-18T13:38:26;99825.53;;;25.65;51.07
27980;BME280;15315;50.836;4.430;2023-09-18T13:48:27;99826.59;;;26.25;50.26
27980;BME280;15315;50.836;4.430;2023-09-18T13:58:28;99837.75;;;26.67;48.58
27980;BME280;15315;50.836;4.430;2023-09-18T14:08:29;99821.72;;;26.57;47.51
27980;BME280;15315;50.836;4.430;2023-09-18T14:18:29;99817.03;;;27.29;47.66
27980;BME280;15315;50.836;4.430;2023-09-18T14:28:30;99802.56;;;27.03;48.50
27980;BME280;15315;50.836;4.430;2023-09-18T14:38:31;99802.47;;;26.32;51.23
27980;BME280;15315;50.836;4.430;2023-09-18T14:48:31;99902.97;;;23.08;100.00
27980;BME280;15315;50.836;4.430;2023-09-18T14:58:32;99862.66;;;22.67;100.00
27980;BME280;15315;50.836;4.430;2023-09-18T15:08:34;99853.50;;;23.54;95.97
27980;BME280;15315;50.836;4.430;2023-09-18T15:18:34;99853.22;;;24.01;89.01
27980;BME280;15315;50.836;4.430;2023-09-18T15:28:35;99835.91;;;24.89;76.81
27980;BME280;15315;50.836;4.430;2023-09-18T15:38:37;99841.63;;;24.88;71.51
27980;BME280;15315;50.836;4.430;2023-09-18T15:48:38;99860.75;;;25.14;70.18
27980;BME280;15315;50.836;4.430;2023-09-18T15:58:38;99883.25;;;26.34;64.50
27980;BME280;15315;50.836;4.430;2023-09-18T16:08:38;99881.72;;;26.38;61.62
27980;BME280;15315;50.836;4.430;2023-09-18T16:18:39;99900.72;;;25.05;63.70
27980;BME280;15315;50.836;4.430;2023-09-18T16:28:39;99906.38;;;24.79;62.55
27980;BME280;15315;50.836;4.430;2023-09-18T16:38:40;99912.00;;;24.39;66.99
27980;BME280;15315;50.836;4.430;2023-09-18T16:48:41;99919.19;;;24.47;63.09
27980;BME280;15315;50.836;4.430;2023-09-18T16:58:42;99918.16;;;24.48;58.50
27980;BME280;15315;50.836;4.430;2023-09-18T17:08:44;99928.59;;;24.26;56.89
27980;BME280;15315;50.836;4.430;2023-09-18T17:18:44;99942.19;;;24.01;56.91
27980;BME280;15315;50.836;4.430;2023-09-18T17:28:45;99958.50;;;23.90;57.92
27980;BME280;15315;50.836;4.430;2023-09-18T17:38:45;99957.03;;;23.74;57.83
27980;BME280;15315;50.836;4.430;2023-09-18T17:48:46;99974.13;;;22.83;60.77
27980;BME280;15315;50.836;4.430;2023-09-18T17:58:47;99974.53;;;23.47;58.74
27980;BME280;15315;50.836;4.430;2023-09-18T18:08:47;99990.75;;;23.22;59.69
27980;BME280;15315;50.836;4.430;2023-09-18T18:18:48;99997.88;;;23.04;60.25
27980;BME280;15315;50.836;4.430;2023-09-18T18:28:49;99999.75;;;22.56;63.11
27980;BME280;15315;50.836;4.430;2023-09-18T18:38:51;100026.31;;;22.76;63.42
27980;BME280;15315;50.836;4.430;2023-09-18T18:48:52;100048.16;;;22.84;63.51
27980;BME280;15315;50.836;4.430;2023-09-18T18:58:53;100056.81;;;22.54;64.74
27980;BME280;15315;50.836;4.430;2023-09-18T19:08:54;100056.00;;;22.32;65.40
27980;BME280;15315;50.836;4.430;2023-09-18T19:18:56;100081.72;;;22.24;64.03
27980;BME280;15315;50.836;4.430;2023-09-18T19:28:57;100109.94;;;22.40;62.27
27980;BME280;15315;50.836;4.430;2023-09-18T19:38:57;100128.63;;;22.23;60.99
27980;BME280;15315;50.836;4.430;2023-09-18T19:48:58;100140.78;;;22.14;61.09
27980;BME280;15315;50.836;4.430;2023-09-18T19:58:58;100156.44;;;21.78;60.17
27980;BME280;15315;50.836;4.430;2023-09-18T20:08:58;100161.94;;;21.63;59.96
27980;BME280;15315;50.836;4.430;2023-09-18T20:18:59;100178.66;;;21.68;58.74
27980;BME280;15315;50.836;4.430;2023-09-18T20:29:00;100190.81;;;21.15;59.87
27980;BME280;15315;50.836;4.430;2023-09-18T20:39:00;100197.22;;;20.93;60.45
27980;BME280;15315;50.836;4.430;2023-09-18T20:49:00;100206.13;;;21.24;60.31
27980;BME280;15315;50.836;4.430;2023-09-18T20:59:02;100210.56;;;20.96;61.59
27980;BME280;15315;50.836;4.430;2023-09-18T21:09:03;100224.06;;;21.12;61.08
27980;BME280;15315;50.836;4.430;2023-09-18T21:19:06;100230.97;;;21.08;61.70
27980;BME280;15315;50.836;4.430;2023-09-18T21:29:06;100245.00;;;20.76;63.49
27980;BME280;15315;50.836;4.430;2023-09-18T21:39:07;100252.69;;;20.58;64.52
27980;BME280;15315;50.836;4.430;2023-09-18T21:49:08;100261.25;;;20.55;65.63
27980;BME280;15315;50.836;4.430;2023-09-18T21:59:08;100276.78;;;20.39;66.91
27980;BME280;15315;50.836;4.430;2023-09-18T22:09:10;100291.78;;;20.44;67.18
27980;BME280;15315;50.836;4.430;2023-09-18T22:19:10;100305.03;;;20.85;65.22
27980;BME280;15315;50.836;4.430;2023-09-18T22:29:11;100314.63;;;20.59;66.24
27980;BME280;15315;50.836;4.430;2023-09-18T23:00:29;100360.25;;;20.05;67.64
27980;BME280;15315;50.836;4.430;2023-09-18T23:10:31;100364.03;;;20.43;66.12
27980;BME280;15315;50.836;4.430;2023-09-18T23:20:32;100381.91;;;20.22;68.35
27980;BME280;15315;50.836;4.430;2023-09-18T23:30:33;100397.53;;;20.53;66.72
27980;BME280;15315;50.836;4.430;2023-09-18T23:40:35;100413.88;;;20.61;66.41
27980;BME280;15315;50.836;4.430;2023-09-18T23:50:36;100424.41;;;20.10;68.21
